createdAt,value
2019-05-25T00:02:16.146Z,12.04
2019-05-25T00:04:46.463Z,12.03
2019-05-25T00:07:17.016Z,12.01
2019-05-25T00:09:48.446Z,11.98
2019-05-25T00:12:21.144Z,11.95
2019-05-25T00:14:51.728Z,11.89
2019-05-25T00:17:22.383Z,11.84
2019-05-25T00:19:54.631Z,11.85
2019-05-25T00:22:24.978Z,11.78
2019-05-25T00:24:55.534Z,11.71
2019-05-25T00:27:25.813Z,11.65
2019-05-25T00:29:56.053Z,11.62
2019-05-25T00:32:26.480Z,11.54
2019-05-25T00:34:56.983Z,11.48
2019-05-25T00:37:27.296Z,11.42
2019-05-25T00:39:57.526Z,11.39
2019-05-25T00:42:27.737Z,11.38
2019-05-25T00:44:57.960Z,11.39
2019-05-25T00:47:28.223Z,11.40
2019-05-25T00:49:59.522Z,11.40
2019-05-25T00:52:30.226Z,11.36
2019-05-25T00:55:00.960Z,11.35
2019-05-25T00:57:31.266Z,11.33
2019-05-25T01:00:01.482Z,11.33
2019-05-25T01:02:32.267Z,11.36
2019-05-25T01:05:02.852Z,11.43
2019-05-25T01:07:33.598Z,11.54
2019-05-25T01:10:06.351Z,11.59
2019-05-25T01:12:36.701Z,11.60
2019-05-25T01:15:08.049Z,11.59
2019-05-25T01:17:38.787Z,11.61
2019-05-25T01:20:12.731Z,11.59
2019-05-25T01:22:43.494Z,11.56
2019-05-25T01:25:15.042Z,11.53
2019-05-25T01:27:45.265Z,11.48
2019-05-25T01:30:15.989Z,11.42
2019-05-25T01:32:46.580Z,11.37
2019-05-25T01:35:17.267Z,11.28
2019-05-25T01:37:48.730Z,11.23
2019-05-25T01:40:21.316Z,11.20
2019-05-25T01:42:52.030Z,11.19
2019-05-25T01:45:22.654Z,11.17
2019-05-25T01:47:53.304Z,11.14
2019-05-25T01:50:23.655Z,11.10
2019-05-25T01:52:53.896Z,11.07
2019-05-25T01:55:24.456Z,11.02
2019-05-25T01:57:54.747Z,10.96
2019-05-25T02:00:27.025Z,10.90
2019-05-25T02:02:57.773Z,10.89
2019-05-25T02:05:28.467Z,10.87
2019-05-25T02:07:58.832Z,10.83
2019-05-25T02:10:29.033Z,10.80
2019-05-25T02:12:59.272Z,10.79
2019-05-25T02:15:29.847Z,10.72
2019-05-25T02:18:00.180Z,10.69
2019-05-25T02:20:30.437Z,10.63
2019-05-25T02:23:01.028Z,10.56
2019-05-25T02:25:31.670Z,10.53
2019-05-25T02:28:01.979Z,10.51
2019-05-25T02:30:32.222Z,10.51
2019-05-25T02:33:03.895Z,10.55
2019-05-25T02:35:34.179Z,10.63
2019-05-25T02:38:04.517Z,10.69
2019-05-25T02:40:34.770Z,10.74
2019-05-25T02:43:05.379Z,10.77
2019-05-25T02:45:36.754Z,10.81
2019-05-25T02:48:07.341Z,10.83
2019-05-25T02:50:37.634Z,10.89
2019-05-25T02:53:07.881Z,10.95
2019-05-25T02:55:38.421Z,11.02
2019-05-25T02:58:09.351Z,11.10
2019-05-25T03:00:39.625Z,11.17
2019-05-25T03:03:09.903Z,11.18
2019-05-25T03:05:40.878Z,11.19
2019-05-25T03:08:11.523Z,11.21
2019-05-25T03:10:42.879Z,11.21
2019-05-25T03:13:13.740Z,11.23
2019-05-25T03:15:44.267Z,11.22
2019-05-25T03:18:14.951Z,11.21
2019-05-25T03:20:45.188Z,11.21
2019-05-25T03:23:15.615Z,11.22
2019-05-25T03:25:49.748Z,11.25
2019-05-25T03:28:18.471Z,11.40
2019-05-25T03:30:48.801Z,11.50
2019-05-25T03:33:19.416Z,11.60
2019-05-25T03:35:49.957Z,11.69
2019-05-25T03:38:23.204Z,11.83
2019-05-25T03:40:53.864Z,12.02
2019-05-25T03:43:24.507Z,12.30
2019-05-25T03:45:55.184Z,12.75
2019-05-25T03:48:25.491Z,13.14
2019-05-25T03:50:56.084Z,13.25
2019-05-25T03:53:26.320Z,13.35
2019-05-25T03:56:05.221Z,13.47
2019-05-25T03:58:28.574Z,13.65
2019-05-25T04:00:59.156Z,13.94
2019-05-25T04:03:29.863Z,14.18
2019-05-25T04:06:00.144Z,14.45
2019-05-25T04:08:30.770Z,14.61
2019-05-25T04:11:02.868Z,14.77
2019-05-25T04:13:33.530Z,14.88
2019-05-25T04:16:04.584Z,14.99
2019-05-25T04:18:34.905Z,15.18
2019-05-25T04:21:05.155Z,15.26
2019-05-25T04:23:35.793Z,15.35
2019-05-25T04:26:21.352Z,15.34
2019-05-25T04:28:38.029Z,15.34
2019-05-25T04:31:09.796Z,15.35
2019-05-25T04:33:40.513Z,15.34
2019-05-25T04:36:11.133Z,15.32
2019-05-25T04:38:41.578Z,15.32
2019-05-25T04:41:12.133Z,15.39
2019-05-25T04:43:42.484Z,15.43
2019-05-25T04:46:12.882Z,15.57
2019-05-25T04:48:43.105Z,15.70
2019-05-25T04:51:13.375Z,15.74
2019-05-25T04:53:43.958Z,15.92
2019-05-25T04:56:14.274Z,16.00
2019-05-25T04:58:44.847Z,16.06
2019-05-25T05:01:15.248Z,16.11
2019-05-25T05:03:48.103Z,16.18
2019-05-25T05:06:18.416Z,16.25
2019-05-25T05:08:49.018Z,16.28
2019-05-25T05:11:19.312Z,16.21
2019-05-25T05:13:50.174Z,16.17
2019-05-25T05:16:20.566Z,16.15
2019-05-25T05:18:50.829Z,16.12
2019-05-25T05:21:21.038Z,16.17
2019-05-25T05:23:51.350Z,16.25
2019-05-25T05:26:21.996Z,16.27
2019-05-25T05:28:52.301Z,16.27
2019-05-25T05:31:23.883Z,16.32
2019-05-25T05:33:54.908Z,16.37
2019-05-25T05:36:27.652Z,16.44
2019-05-25T05:38:58.854Z,16.57
2019-05-25T05:41:32.902Z,16.67
2019-05-25T05:44:05.184Z,16.94
2019-05-25T05:46:40.279Z,17.81
2019-05-25T05:49:11.798Z,18.05
2019-05-25T05:51:44.587Z,18.62
2019-05-25T05:54:20.491Z,18.60
2019-05-25T05:56:50.850Z,18.51
2019-05-25T05:59:21.334Z,18.43
2019-05-25T06:01:51.547Z,18.43
2019-05-25T06:04:22.139Z,18.43
2019-05-25T06:06:52.792Z,18.45
2019-05-25T06:09:24.433Z,18.53
2019-05-25T06:11:55.001Z,18.85
2019-05-25T06:14:25.649Z,18.81
2019-05-25T06:16:57.560Z,19.31
2019-05-25T06:19:27.856Z,19.97
2019-05-25T06:21:58.115Z,19.92
2019-05-25T06:24:28.349Z,19.76
2019-05-25T06:26:58.570Z,19.68
2019-05-25T06:29:29.138Z,19.60
2019-05-25T06:31:59.800Z,19.77
2019-05-25T06:34:30.822Z,20.97
2019-05-25T06:37:01.453Z,21.73
2019-05-25T06:39:31.788Z,22.58
2019-05-25T06:42:02.144Z,22.60
2019-05-25T06:44:32.435Z,22.54
2019-05-25T06:47:02.684Z,22.94
2019-05-25T06:49:33.048Z,23.19
2019-05-25T06:52:04.611Z,23.87
2019-05-25T06:54:35.005Z,23.94
2019-05-25T06:57:05.292Z,23.96
2019-05-25T06:59:35.526Z,24.82
2019-05-25T07:02:05.838Z,26.83
2019-05-25T07:04:36.059Z,29.60
2019-05-25T07:07:06.312Z,32.19
2019-05-25T07:09:36.569Z,34.13
2019-05-25T07:12:06.922Z,36.13
2019-05-25T07:14:37.302Z,37.67
2019-05-25T07:17:07.914Z,39.29
2019-05-25T07:19:39.726Z,40.39
2019-05-25T07:22:10.389Z,41.51
2019-05-25T07:24:40.769Z,42.61
2019-05-25T07:27:11.446Z,43.20
2019-05-25T07:29:41.723Z,43.82
2019-05-25T07:32:11.893Z,43.82
2019-05-25T07:34:42.138Z,44.12
2019-05-25T07:37:12.410Z,44.04
2019-05-25T07:39:44.373Z,43.83
2019-05-25T07:42:14.645Z,44.61
2019-05-25T07:44:45.034Z,44.75
2019-05-25T07:47:15.771Z,45.02
2019-05-25T07:49:46.079Z,44.69
2019-05-25T07:52:16.391Z,44.87
2019-05-25T07:54:46.672Z,44.62
2019-05-25T07:57:17.261Z,44.73
2019-05-25T07:59:47.917Z,45.01
2019-05-25T08:02:18.254Z,45.08
2019-05-25T08:04:49.648Z,45.18
2019-05-25T08:07:20.553Z,45.66
2019-05-25T08:09:51.346Z,46.02
2019-05-25T08:12:21.660Z,46.58
2019-05-25T08:14:52.303Z,46.69
2019-05-25T08:17:22.948Z,46.50
2019-05-25T08:19:53.650Z,46.16
2019-05-25T08:22:24.309Z,45.56
2019-05-25T08:24:54.591Z,45.10
2019-05-25T08:27:24.895Z,45.01
2019-05-25T08:29:55.154Z,44.79
2019-05-25T08:32:25.784Z,43.99
2019-05-25T08:34:57.082Z,43.96
2019-05-25T08:37:27.679Z,44.21
2019-05-25T08:39:58.054Z,43.99
2019-05-25T08:42:28.277Z,44.40
2019-05-25T08:45:02.407Z,44.33
2019-05-25T08:47:34.827Z,43.58
2019-05-25T08:50:07.835Z,43.73
2019-05-25T08:52:39.288Z,43.78
2019-05-25T08:55:09.599Z,44.00
2019-05-25T08:57:39.816Z,44.01
2019-05-25T09:00:11.046Z,43.40
2019-05-25T09:02:41.676Z,43.76
2019-05-25T09:05:12.687Z,43.38
2019-05-25T09:07:43.870Z,43.40
2019-05-25T09:10:14.374Z,42.69
2019-05-25T09:12:44.586Z,42.55
2019-05-25T09:15:16.705Z,42.61
2019-05-25T09:17:48.056Z,41.87
2019-05-25T09:20:21.440Z,41.79
2019-05-25T09:22:51.248Z,41.77
2019-05-25T09:25:21.522Z,41.35
2019-05-25T09:27:52.082Z,41.46
2019-05-25T09:30:22.506Z,41.11
2019-05-25T09:32:52.757Z,40.79
2019-05-25T09:35:23.347Z,40.81
2019-05-25T09:37:54.027Z,40.77
2019-05-25T09:40:24.493Z,40.90
2019-05-25T09:42:54.881Z,40.66
2019-05-25T09:45:25.096Z,39.96
2019-05-25T09:47:55.339Z,39.80
2019-05-25T09:50:26.133Z,39.21
2019-05-25T09:52:56.419Z,39.35
2019-05-25T09:55:26.643Z,39.05
2019-05-25T09:57:56.876Z,38.85
2019-05-25T10:00:27.850Z,38.21
2019-05-25T10:02:58.469Z,37.37
2019-05-25T10:05:29.014Z,37.34
2019-05-25T10:07:59.840Z,36.51
2019-05-25T10:10:30.147Z,35.85
2019-05-25T10:13:00.375Z,35.37
2019-05-25T10:15:30.802Z,34.49
2019-05-25T10:18:01.224Z,33.61
2019-05-25T10:20:31.561Z,32.56
2019-05-25T10:23:01.804Z,31.79
2019-05-25T10:25:32.303Z,31.27
2019-05-25T10:28:03.074Z,30.89
2019-05-25T10:30:36.110Z,30.53
2019-05-25T10:33:06.381Z,30.20
2019-05-25T10:35:36.920Z,29.96
2019-05-25T10:38:08.920Z,29.89
2019-05-25T10:40:39.613Z,29.53
2019-05-25T10:43:09.971Z,29.30
2019-05-25T10:45:40.198Z,28.96
2019-05-25T10:48:10.768Z,28.88
2019-05-25T10:50:41.066Z,28.83
2019-05-25T10:53:11.291Z,28.85
2019-05-25T10:55:41.930Z,28.87
2019-05-25T10:58:12.264Z,28.76
2019-05-25T11:00:42.603Z,28.66
2019-05-25T11:03:12.915Z,28.45
2019-05-25T11:05:43.192Z,28.30
2019-05-25T11:08:13.438Z,28.19
2019-05-25T11:10:45.624Z,27.95
2019-05-25T11:13:16.010Z,27.83
2019-05-25T11:15:46.587Z,27.84
2019-05-25T11:18:17.254Z,27.93
2019-05-25T11:20:47.713Z,28.04
2019-05-25T11:23:19.376Z,28.02
2019-05-25T11:25:50.017Z,28.01
2019-05-25T11:28:20.416Z,28.04
2019-05-25T11:30:50.897Z,28.00
2019-05-25T11:33:21.235Z,27.77
2019-05-25T11:35:51.455Z,27.55
2019-05-25T11:38:21.877Z,27.44
2019-05-25T11:40:52.529Z,27.39
2019-05-25T11:43:23.219Z,27.31
2019-05-25T11:45:53.576Z,27.27
2019-05-25T11:48:24.328Z,27.28
2019-05-25T11:50:54.667Z,27.37
2019-05-25T11:53:24.896Z,27.45
2019-05-25T11:55:55.083Z,27.67
2019-05-25T11:58:25.770Z,27.79
2019-05-25T12:00:56.021Z,27.64
2019-05-25T12:03:26.218Z,27.60
2019-05-25T12:05:56.441Z,27.60
2019-05-25T12:08:26.999Z,27.63
2019-05-25T12:10:57.406Z,27.67
2019-05-25T12:13:27.625Z,27.54
2019-05-25T12:15:58.224Z,27.28
2019-05-25T12:18:28.631Z,27.17
2019-05-25T12:20:59.226Z,27.19
2019-05-25T12:23:30.203Z,27.12
2019-05-25T12:26:00.571Z,27.06
2019-05-25T12:28:31.132Z,27.10
2019-05-25T12:31:01.554Z,27.16
2019-05-25T12:33:33.398Z,27.25
2019-05-25T12:36:04.752Z,27.46
2019-05-25T12:38:35.543Z,27.60
2019-05-25T12:41:06.727Z,27.63
2019-05-25T12:43:37.686Z,27.64
2019-05-25T12:46:07.944Z,27.90
2019-05-25T12:48:38.851Z,28.04
2019-05-25T12:51:09.132Z,27.83
2019-05-25T12:53:39.438Z,27.56
2019-05-25T12:56:09.740Z,27.31
2019-05-25T12:58:40.024Z,27.26
2019-05-25T13:01:10.274Z,27.38
2019-05-25T13:03:40.931Z,27.58
2019-05-25T13:06:11.231Z,27.71
2019-05-25T13:08:43.880Z,27.81
2019-05-25T13:11:13.405Z,27.78
2019-05-25T13:13:43.630Z,27.82
2019-05-25T13:16:14.682Z,27.59
2019-05-25T13:18:45.622Z,27.16
2019-05-25T13:21:16.005Z,26.93
2019-05-25T13:23:46.569Z,26.78
2019-05-25T13:26:16.856Z,26.87
2019-05-25T13:28:47.442Z,26.92
2019-05-25T13:31:18.052Z,27.00
2019-05-25T13:33:48.280Z,26.89
2019-05-25T13:36:18.515Z,26.51
2019-05-25T13:38:50.741Z,26.30
2019-05-25T13:41:21.582Z,25.97
2019-05-25T13:43:51.881Z,25.71
2019-05-25T13:46:22.288Z,25.58
2019-05-25T13:48:52.880Z,25.37
2019-05-25T13:51:23.325Z,25.20
2019-05-25T13:53:54.092Z,24.95
2019-05-25T13:56:24.700Z,24.72
2019-05-25T13:58:55.351Z,24.65
2019-05-25T14:01:28.729Z,24.54
2019-05-25T14:03:57.975Z,24.51
2019-05-25T14:06:29.430Z,24.59
2019-05-25T14:09:00.111Z,24.86
2019-05-25T14:11:30.795Z,25.30
2019-05-25T14:14:01.102Z,25.72
2019-05-25T14:16:31.336Z,25.99
2019-05-25T14:19:01.604Z,26.27
2019-05-25T14:21:31.835Z,26.37
2019-05-25T14:24:02.062Z,26.42
2019-05-25T14:26:32.283Z,26.54
2019-05-25T14:29:02.582Z,26.62
2019-05-25T14:31:44.922Z,26.66
2019-05-25T14:34:05.474Z,26.45
2019-05-25T14:36:35.807Z,26.44
2019-05-25T14:39:08.587Z,26.31
2019-05-25T14:41:39.139Z,26.40
2019-05-25T14:44:09.423Z,26.34
2019-05-25T14:46:40.031Z,26.08
2019-05-25T14:49:10.455Z,25.77
2019-05-25T14:51:40.813Z,25.33
2019-05-25T14:54:11.036Z,25.13
2019-05-25T14:56:41.273Z,25.16
2019-05-25T14:59:11.524Z,25.19
2019-05-25T15:01:41.789Z,25.19
2019-05-25T15:04:12.387Z,25.12
2019-05-25T15:06:43.016Z,25.08
2019-05-25T15:09:13.733Z,25.04
2019-05-25T15:11:44.081Z,25.06
2019-05-25T15:14:14.382Z,25.02
2019-05-25T15:16:46.325Z,24.98
2019-05-25T15:19:17.063Z,24.85
2019-05-25T15:21:47.449Z,24.83
2019-05-25T15:24:17.668Z,24.95
2019-05-25T15:26:47.879Z,24.94
2019-05-25T15:29:18.191Z,24.78
2019-05-25T15:31:48.646Z,24.56
2019-05-25T15:34:18.909Z,24.21
2019-05-25T15:36:49.625Z,24.13
2019-05-25T15:39:19.929Z,24.12
2019-05-25T15:41:50.501Z,24.10
2019-05-25T15:44:21.158Z,24.05
2019-05-25T15:46:51.955Z,23.85
2019-05-25T15:49:32.448Z,23.70
2019-05-25T15:51:54.794Z,23.54
2019-05-25T15:54:25.536Z,23.40
2019-05-25T15:56:55.913Z,23.33
2019-05-25T15:59:26.176Z,23.30
2019-05-25T16:01:56.479Z,23.25
2019-05-25T16:04:26.823Z,23.08
2019-05-25T16:06:57.386Z,22.93
2019-05-25T16:09:27.694Z,22.66
2019-05-25T16:11:57.989Z,22.60
2019-05-25T16:14:28.741Z,22.49
2019-05-25T16:16:59.153Z,22.41
2019-05-25T16:19:29.390Z,22.32
2019-05-25T16:21:59.612Z,22.18
2019-05-25T16:24:30.278Z,22.10
2019-05-25T16:27:00.563Z,22.00
2019-05-25T16:29:31.237Z,21.89
2019-05-25T16:32:01.947Z,21.92
2019-05-25T16:34:32.261Z,21.83
2019-05-25T16:37:02.686Z,21.72
2019-05-25T16:39:33.364Z,21.58
2019-05-25T16:42:04.015Z,21.51
2019-05-25T16:44:35.906Z,21.40
2019-05-25T16:47:06.925Z,21.35
2019-05-25T16:49:39.528Z,21.27
2019-05-25T16:52:10.175Z,21.21
2019-05-25T16:54:40.537Z,21.07
2019-05-25T16:57:10.795Z,20.96
2019-05-25T16:59:41.438Z,20.91
2019-05-25T17:02:11.780Z,20.88
2019-05-25T17:04:42.047Z,20.83
2019-05-25T17:07:12.437Z,20.79
2019-05-25T17:09:45.530Z,20.64
2019-05-25T17:12:16.108Z,20.56
2019-05-25T17:14:47.520Z,20.41
2019-05-25T17:17:17.756Z,20.29
2019-05-25T17:19:47.983Z,20.15
2019-05-25T17:22:18.277Z,20.00
2019-05-25T17:24:48.597Z,19.86
2019-05-25T17:27:18.937Z,19.78
2019-05-25T17:29:49.156Z,19.74
2019-05-25T17:32:19.475Z,19.62
2019-05-25T17:34:49.804Z,19.57
2019-05-25T17:37:20.061Z,19.39
2019-05-25T17:39:50.661Z,19.28
2019-05-25T17:42:21.365Z,19.31
2019-05-25T17:44:51.646Z,19.24
2019-05-25T17:47:23.776Z,19.10
2019-05-25T17:49:54.458Z,18.94
2019-05-25T17:52:25.147Z,18.83
2019-05-25T17:54:55.363Z,18.76
2019-05-25T17:57:25.614Z,18.66
2019-05-25T17:59:59.388Z,18.49
2019-05-25T18:02:29.944Z,18.50
2019-05-25T18:05:00.608Z,18.34
2019-05-25T18:07:31.064Z,18.15
2019-05-25T18:10:01.304Z,18.05
2019-05-25T18:12:33.676Z,18.04
2019-05-25T18:15:09.524Z,17.91
2019-05-25T18:17:39.775Z,17.82
2019-05-25T18:20:12.864Z,17.62
2019-05-25T18:22:46.133Z,17.49
2019-05-25T18:25:17.167Z,17.35
2019-05-25T18:27:49.251Z,17.27
2019-05-25T18:30:20.240Z,17.14
2019-05-25T18:32:50.876Z,17.02
2019-05-25T18:35:21.754Z,16.93
2019-05-25T18:37:52.130Z,16.79
2019-05-25T18:40:22.384Z,16.76
2019-05-25T18:42:53.050Z,16.62
2019-05-25T18:45:23.766Z,16.59
2019-05-25T18:47:54.566Z,16.47
2019-05-25T18:50:25.350Z,16.38
2019-05-25T18:52:56.038Z,16.32
2019-05-25T18:55:26.866Z,16.20
2019-05-25T18:57:57.314Z,16.11
2019-05-25T19:00:27.807Z,16.05
2019-05-25T19:02:58.825Z,15.95
2019-05-25T19:05:29.559Z,15.99
2019-05-25T19:07:59.917Z,15.90
2019-05-25T19:10:30.445Z,15.83
2019-05-25T19:13:00.686Z,15.73
2019-05-25T19:15:30.942Z,15.67
2019-05-25T19:18:01.349Z,15.58
2019-05-25T19:20:31.648Z,15.54
2019-05-25T19:23:02.038Z,15.46
2019-05-25T19:25:32.715Z,15.39
2019-05-25T19:28:03.033Z,15.40
2019-05-25T19:30:34.840Z,15.39
2019-05-25T19:33:06.550Z,15.34
2019-05-25T19:35:37.224Z,15.30
2019-05-25T19:38:08.100Z,15.27
2019-05-25T19:40:38.786Z,15.21
2019-05-25T19:43:09.121Z,15.13
2019-05-25T19:45:39.423Z,15.09
2019-05-25T19:48:09.680Z,15.02
2019-05-25T19:50:40.262Z,14.92
2019-05-25T19:53:10.559Z,14.86
2019-05-25T19:55:41.207Z,14.77
2019-05-25T19:58:11.542Z,14.71
2019-05-25T20:00:42.183Z,14.64
2019-05-25T20:03:12.725Z,14.55
2019-05-25T20:05:43.337Z,14.48
2019-05-25T20:08:13.919Z,14.41
2019-05-25T20:10:44.204Z,14.33
2019-05-25T20:13:14.493Z,14.25
2019-05-25T20:15:44.741Z,14.18
2019-05-25T20:18:14.997Z,14.06
2019-05-25T20:20:45.366Z,13.96
2019-05-25T20:23:15.625Z,13.88
2019-05-25T20:25:45.858Z,13.83
2019-05-25T20:28:16.181Z,13.77
2019-05-25T20:30:46.457Z,13.70
2019-05-25T20:33:26.984Z,13.60
2019-05-25T20:35:51.316Z,13.54
2019-05-25T20:38:23.696Z,13.44
2019-05-25T20:40:54.090Z,13.38
2019-05-25T20:43:24.359Z,13.31
2019-05-25T20:45:55.159Z,13.26
2019-05-25T20:48:27.121Z,13.23
2019-05-25T20:50:57.984Z,13.18
2019-05-25T20:53:28.257Z,13.16
2019-05-25T20:55:58.700Z,13.08
2019-05-25T20:58:28.941Z,13.03
2019-05-25T21:00:59.558Z,12.97
2019-05-25T21:03:29.801Z,12.94
2019-05-25T21:06:00.076Z,12.88
2019-05-25T21:08:30.715Z,12.82
2019-05-25T21:11:01.346Z,12.75
2019-05-25T21:13:32.032Z,12.71
2019-05-25T21:16:02.414Z,12.68
2019-05-25T21:18:32.653Z,12.59
2019-05-25T21:21:03.005Z,12.50
2019-05-25T21:23:33.260Z,12.43
2019-05-25T21:26:04.386Z,12.37
2019-05-25T21:28:36.590Z,12.31
2019-05-25T21:31:07.525Z,12.25
2019-05-25T21:33:38.225Z,12.21
2019-05-25T21:36:09.430Z,12.16
2019-05-25T21:38:39.890Z,12.13
2019-05-25T21:41:10.476Z,12.04
2019-05-25T21:43:41.130Z,12.02
2019-05-25T21:46:11.450Z,12.01
2019-05-25T21:48:42.023Z,11.92
2019-05-25T21:51:14.315Z,11.90
2019-05-25T21:53:44.612Z,11.86
2019-05-25T21:56:14.887Z,11.80
2019-05-25T21:58:45.107Z,11.80
2019-05-25T22:01:15.695Z,11.75
2019-05-25T22:03:45.918Z,11.71
2019-05-25T22:06:24.316Z,11.65
2019-05-25T22:08:48.066Z,11.59
2019-05-25T22:11:18.329Z,11.56
2019-05-25T22:13:48.735Z,11.53
2019-05-25T22:16:19.309Z,11.49
2019-05-25T22:18:49.798Z,11.43
2019-05-25T22:21:20.367Z,11.37
2019-05-25T22:23:50.696Z,11.32
2019-05-25T22:26:20.954Z,11.26
2019-05-25T22:28:51.185Z,11.23
2019-05-25T22:31:21.470Z,11.18
2019-05-25T22:33:51.680Z,11.16
2019-05-25T22:36:21.906Z,11.11
2019-05-25T22:38:52.144Z,11.08
2019-05-25T22:41:22.398Z,10.99
2019-05-25T22:43:52.986Z,10.93
2019-05-25T22:46:23.635Z,10.86
2019-05-25T22:48:54.337Z,10.80
2019-05-25T22:51:24.833Z,10.75
2019-05-25T22:53:55.476Z,10.70
2019-05-25T22:56:26.059Z,10.65
2019-05-25T22:58:57.894Z,10.60
2019-05-25T23:01:28.385Z,10.55
2019-05-25T23:03:58.607Z,10.52
2019-05-25T23:06:29.234Z,10.48
2019-05-25T23:08:59.909Z,10.44
2019-05-25T23:11:30.369Z,10.42
2019-05-25T23:14:00.680Z,10.38
2019-05-25T23:16:31.047Z,10.32
2019-05-25T23:19:01.290Z,10.25
2019-05-25T23:21:31.578Z,10.22
2019-05-25T23:24:01.889Z,10.20
2019-05-25T23:26:32.118Z,10.15
2019-05-25T23:29:02.359Z,10.12
2019-05-25T23:31:32.754Z,10.07
2019-05-25T23:34:03.102Z,10.04
2019-05-25T23:36:33.309Z,10.01
2019-05-25T23:39:24.345Z,9.96
2019-05-25T23:41:54.925Z,9.94
2019-05-25T23:44:25.785Z,9.89
2019-05-25T23:46:56.062Z,9.84
2019-05-25T23:49:26.311Z,9.83
2019-05-25T23:51:56.529Z,9.81
2019-05-25T23:54:26.933Z,9.77
2019-05-25T23:56:57.143Z,9.75
2019-05-25T23:59:27.658Z,9.74
